Time;durP1;ratioP1;P1;durP2;ratioP2;P2;SDS_P1;SDS_P2;PMS_P1;PMS_P2;Temp;Humidity;BMP_temperature;BMP_pressure;BME280_temperature;BME280_humidity;BME280_pressure;Samples;Min_cycle;Max_cycle;Signal;HPM_P1;HPM_P2
2021/07/30 00:01:10;;;;;;;0.20;0.20;;;;;;;;;;4827139;29;20534;-89
2021/07/30 00:03:37;;;;;;;0.10;0.10;;;;;;;;;;4826430;29;20129;-89
2021/07/30 00:06:03;;;;;;;0.10;0.10;;;;;;;;;;4827016;29;20042;-89
2021/07/30 00:08:29;;;;;;;0.10;0.10;;;;;;;;;;4811858;29;20101;-89
2021/07/30 00:10:55;;;;;;;0.10;0.10;;;;;;;;;;4826763;29;20136;-89
2021/07/30 00:13:21;;;;;;;0.10;0.10;;;;;;;;;;4826854;29;20050;-89
2021/07/30 00:15:49;;;;;;;0.10;0.10;;;;;;;;;;4826671;29;20093;-89
2021/07/30 00:18:15;;;;;;;0.10;0.10;;;;;;;;;;4826721;29;20405;-89
2021/07/30 00:20:41;;;;;;;0.10;0.10;;;;;;;;;;4841783;29;20046;-89
2021/07/30 00:23:07;;;;;;;0.10;0.10;;;;;;;;;;4826789;29;20509;-89
2021/07/30 00:25:33;;;;;;;0.10;0.10;;;;;;;;;;4826815;29;20046;-90
2021/07/30 00:27:59;;;;;;;0.20;0.20;;;;;;;;;;4826547;29;20050;-90
2021/07/30 00:30:25;;;;;;;0.10;0.10;;;;;;;;;;4841910;29;20069;-89
2021/07/30 00:32:51;;;;;;;0.10;0.10;;;;;;;;;;4826679;29;20066;-90
2021/07/30 00:35:17;;;;;;;0.15;0.15;;;;;;;;;;4842014;29;20041;-90
2021/07/30 00:37:43;;;;;;;0.10;0.10;;;;;;;;;;4826451;29;20042;-90
2021/07/30 00:40:10;;;;;;;0.10;0.10;;;;;;;;;;4826811;29;20045;-90
2021/07/30 00:42:36;;;;;;;0.10;0.10;;;;;;;;;;4841721;29;20439;-90
2021/07/30 00:45:02;;;;;;;0.20;0.20;;;;;;;;;;4841427;29;20046;-90
2021/07/30 00:47:28;;;;;;;0.10;0.10;;;;;;;;;;4826549;29;20050;-90
2021/07/30 00:49:55;;;;;;;0.10;0.10;;;;;;;;;;4826438;29;20060;-89
2021/07/30 00:52:21;;;;;;;0.10;0.10;;;;;;;;;;4841337;29;20143;-89
2021/07/30 00:54:47;;;;;;;0.10;0.10;;;;;;;;;;4841563;29;20239;-89
2021/07/30 00:57:13;;;;;;;0.10;0.10;;;;;;;;;;4825843;29;20509;-89
2021/07/30 00:59:40;;;;;;;0.10;0.10;;;;;;;;;;4826186;29;20050;-89
2021/07/30 01:02:06;;;;;;;0.50;0.50;;;;;;;;;;4841138;29;20050;-89
2021/07/30 01:04:32;;;;;;;0.10;0.10;;;;;;;;;;4826011;29;20049;-89
2021/07/30 01:06:58;;;;;;;0.10;0.10;;;;;;;;;;4825772;29;20113;-89
2021/07/30 01:09:24;;;;;;;0.10;0.10;;;;;;;;;;4826262;29;20395;-89
2021/07/30 01:11:50;;;;;;;0.10;0.10;;;;;;;;;;4825674;29;20070;-89
2021/07/30 01:14:17;;;;;;;0.10;0.10;;;;;;;;;;4840538;29;20049;-88
2021/07/30 01:16:44;;;;;;;0.10;0.10;;;;;;;;;;4825394;29;20058;-89
2021/07/30 01:19:15;;;;;;;0.10;0.10;;;;;;;;;;4825769;29;20042;-88
2021/07/30 01:21:41;;;;;;;0.10;0.10;;;;;;;;;;4841916;29;20066;-89
2021/07/30 01:24:07;;;;;;;0.10;0.10;;;;;;;;;;4840754;29;20046;-88
2021/07/30 01:26:33;;;;;;;0.10;0.10;;;;;;;;;;4825422;29;20049;-88
2021/07/30 01:28:59;;;;;;;0.10;0.10;;;;;;;;;;4840784;29;20088;-88
2021/07/30 01:31:25;;;;;;;0.10;0.10;;;;;;;;;;4810431;29;20077;-89
2021/07/30 01:33:51;;;;;;;0.20;0.20;;;;;;;;;;4825634;29;20111;-88
2021/07/30 01:36:17;;;;;;;0.10;0.10;;;;;;;;;;4825538;29;20132;-89
2021/07/30 01:38:43;;;;;;;0.10;0.10;;;;;;;;;;4825500;29;20049;-89
2021/07/30 01:41:10;;;;;;;0.10;0.10;;;;;;;;;;4840524;29;20038;-89
2021/07/30 01:43:39;;;;;;;0.20;0.20;;;;;;;;;;4825412;29;20038;-89
2021/07/30 01:46:05;;;;;;;0.20;0.20;;;;;;;;;;4840379;29;20081;-89
2021/07/30 01:48:31;;;;;;;0.10;0.10;;;;;;;;;;4825497;29;20046;-89
2021/07/30 01:50:57;;;;;;;0.20;0.20;;;;;;;;;;4825217;29;20045;-89
2021/07/30 01:53:23;;;;;;;0.10;0.10;;;;;;;;;;4825334;29;20547;-89
2021/07/30 01:55:49;;;;;;;0.10;0.10;;;;;;;;;;4825482;29;20038;-89
2021/07/30 01:58:15;;;;;;;0.22;0.22;;;;;;;;;;4825167;29;20509;-89
2021/07/30 02:00:41;;;;;;;0.10;0.10;;;;;;;;;;4825453;29;20046;-89
2021/07/30 02:03:07;;;;;;;0.10;0.10;;;;;;;;;;4825329;29;20417;-89
2021/07/30 02:05:33;;;;;;;0.20;0.20;;;;;;;;;;4840487;29;20499;-90
2021/07/30 02:07:59;;;;;;;0.10;0.10;;;;;;;;;;4840463;29;20548;-89
2021/07/30 02:10:25;;;;;;;0.10;0.10;;;;;;;;;;4825451;29;20115;-89
2021/07/30 02:15:37;;;;;;;0.10;0.10;;;;;;;;;;4840549;29;20049;-90
2021/07/30 02:18:07;;;;;;;0.15;0.15;;;;;;;;;;4825585;29;20053;-90
2021/07/30 02:20:33;;;;;;;0.70;0.20;;;;;;;;;;4840464;29;20440;-90
2021/07/30 02:22:59;;;;;;;0.10;0.10;;;;;;;;;;4840447;29;20409;-89
2021/07/30 02:25:25;;;;;;;0.10;0.10;;;;;;;;;;4825220;29;20045;-90
2021/07/30 02:27:51;;;;;;;0.10;0.10;;;;;;;;;;4843848;29;20038;-89
2021/07/30 02:30:17;;;;;;;0.13;0.13;;;;;;;;;;4828320;29;20057;-90
2021/07/30 02:32:43;;;;;;;0.10;0.10;;;;;;;;;;4813415;29;20061;-89
2021/07/30 02:35:09;;;;;;;0.10;0.10;;;;;;;;;;4843790;29;20046;-89
2021/07/30 02:37:35;;;;;;;0.10;0.10;;;;;;;;;;4828122;29;20081;-89
2021/07/30 02:40:01;;;;;;;0.10;0.10;;;;;;;;;;4813370;29;20049;-87
2021/07/30 02:42:27;;;;;;;0.10;0.10;;;;;;;;;;4813496;29;20202;-89
2021/07/30 02:44:53;;;;;;;0.10;0.10;;;;;;;;;;4828018;29;20061;-89
2021/07/30 02:47:20;;;;;;;0.10;0.10;;;;;;;;;;4844858;29;20049;-89
2021/07/30 02:49:46;;;;;;;0.15;0.15;;;;;;;;;;4828041;29;20056;-89
2021/07/30 02:52:12;;;;;;;0.10;0.10;;;;;;;;;;4843423;29;20045;-89
2021/07/30 02:54:38;;;;;;;0.10;0.10;;;;;;;;;;4827989;29;20125;-89
2021/07/30 02:57:04;;;;;;;0.10;0.10;;;;;;;;;;4827783;29;20054;-89
2021/07/30 02:59:33;;;;;;;0.20;0.20;;;;;;;;;;4827914;29;20103;-90
2021/07/30 03:02:00;;;;;;;0.20;0.20;;;;;;;;;;4828261;29;20048;-89
2021/07/30 03:04:27;;;;;;;0.10;0.10;;;;;;;;;;4813242;29;20078;-91
2021/07/30 03:06:53;;;;;;;0.10;0.10;;;;;;;;;;4843458;29;20042;-90
2021/07/30 03:09:19;;;;;;;0.10;0.10;;;;;;;;;;4828052;29;20049;-90
2021/07/30 03:11:45;;;;;;;0.25;0.25;;;;;;;;;;4828182;29;20046;-90
2021/07/30 03:14:11;;;;;;;0.20;0.20;;;;;;;;;;4843455;29;20081;-90
2021/07/30 03:16:37;;;;;;;0.30;0.30;;;;;;;;;;4827872;29;20056;-91
2021/07/30 03:19:04;;;;;;;0.10;0.10;;;;;;;;;;4843425;29;20613;-90
2021/07/30 03:21:30;;;;;;;0.20;0.20;;;;;;;;;;4812960;29;20065;-91
2021/07/30 03:23:56;;;;;;;0.10;0.10;;;;;;;;;;4812937;29;20123;-91
2021/07/30 03:26:22;;;;;;;0.20;0.20;;;;;;;;;;4827938;29;20106;-90
2021/07/30 03:28:49;;;;;;;0.10;0.10;;;;;;;;;;4827500;29;20042;-90
2021/07/30 03:31:15;;;;;;;0.20;0.20;;;;;;;;;;4827834;29;20041;-91
2021/07/30 03:33:41;;;;;;;0.20;0.20;;;;;;;;;;4827840;29;20105;-89
2021/07/30 03:36:08;;;;;;;0.10;0.10;;;;;;;;;;4842780;29;20038;-90
2021/07/30 03:38:34;;;;;;;0.10;0.10;;;;;;;;;;4841636;29;20087;-90
2021/07/30 03:41:04;;;;;;;0.10;0.10;;;;;;;;;;4842482;29;20038;-89
2021/07/30 03:43:30;;;;;;;0.10;0.10;;;;;;;;;;4826654;29;20054;-89
2021/07/30 03:45:56;;;;;;;0.10;0.10;;;;;;;;;;4842393;29;20140;-89
2021/07/30 03:48:22;;;;;;;0.20;0.20;;;;;;;;;;4827074;29;20077;-90
2021/07/30 03:50:48;;;;;;;0.10;0.10;;;;;;;;;;4827235;29;20137;-89
2021/07/30 03:53:14;;;;;;;0.10;0.10;;;;;;;;;;4827147;29;20411;-90
2021/07/30 03:55:40;;;;;;;1.20;0.73;;;;;;;;;;4827016;29;20078;-90
2021/07/30 03:58:06;;;;;;;0.20;0.20;;;;;;;;;;4827089;29;20122;-89
2021/07/30 04:00:32;;;;;;;0.10;0.10;;;;;;;;;;4827080;29;20619;-89
2021/07/30 04:02:59;;;;;;;0.10;0.10;;;;;;;;;;4827137;29;20483;-89
2021/07/30 04:05:25;;;;;;;0.10;0.10;;;;;;;;;;4827126;29;20064;-90
2021/07/30 04:07:51;;;;;;;0.10;0.10;;;;;;;;;;4842137;29;20054;-89
2021/07/30 04:10:17;;;;;;;0.10;0.10;;;;;;;;;;4827038;29;20098;-89
2021/07/30 04:12:43;;;;;;;0.10;0.10;;;;;;;;;;4842105;29;20044;-89
2021/07/30 04:15:09;;;;;;;0.10;0.10;;;;;;;;;;4827113;29;20066;-89
2021/07/30 04:17:36;;;;;;;0.10;0.10;;;;;;;;;;4826870;29;20081;-90
2021/07/30 04:20:06;;;;;;;0.10;0.10;;;;;;;;;;4827311;29;20133;-89
2021/07/30 04:22:32;;;;;;;0.20;0.20;;;;;;;;;;4826900;29;20479;-89
2021/07/30 04:24:58;;;;;;;0.10;0.10;;;;;;;;;;4826963;29;20046;-89
2021/07/30 04:27:25;;;;;;;0.10;0.10;;;;;;;;;;4811596;29;20057;-90
2021/07/30 04:29:51;;;;;;;0.10;0.10;;;;;;;;;;4826807;29;20371;-89
2021/07/30 04:32:17;;;;;;;0.57;0.20;;;;;;;;;;4826472;29;20045;-89
2021/07/30 04:34:44;;;;;;;0.10;0.10;;;;;;;;;;4842955;29;20464;-89
2021/07/30 04:37:10;;;;;;;0.10;0.10;;;;;;;;;;4826069;29;20049;-89
2021/07/30 04:39:37;;;;;;;0.10;0.10;;;;;;;;;;4811651;29;20075;-89
2021/07/30 04:42:04;;;;;;;0.10;0.10;;;;;;;;;;4811439;29;20042;-92
2021/07/30 04:44:32;;;;;;;0.10;0.10;;;;;;;;;;4808197;29;20130;-90
2021/07/30 04:46:58;;;;;;;0.10;0.10;;;;;;;;;;4823616;29;20054;-88
2021/07/30 04:49:24;;;;;;;0.73;0.73;;;;;;;;;;4822927;29;20082;-89
2021/07/30 04:51:50;;;;;;;0.13;0.13;;;;;;;;;;4838180;29;20070;-89
2021/07/30 04:54:16;;;;;;;0.10;0.10;;;;;;;;;;4838054;29;20459;-90
2021/07/30 04:56:42;;;;;;;0.10;0.10;;;;;;;;;;4823314;29;20038;-89
2021/07/30 04:59:08;;;;;;;0.10;0.10;;;;;;;;;;4838155;29;20163;-90
2021/07/30 05:01:43;;;;;;;0.10;0.10;;;;;;;;;;4823088;29;20102;-89
2021/07/30 05:04:10;;;;;;;0.30;0.30;;;;;;;;;;4823029;29;20038;-89
2021/07/30 05:06:36;;;;;;;0.10;0.10;;;;;;;;;;4823876;29;20183;-88
2021/07/30 05:09:02;;;;;;;0.13;0.13;;;;;;;;;;4822857;29;20053;-90
2021/07/30 05:11:28;;;;;;;0.10;0.10;;;;;;;;;;4823749;29;20054;-91
2021/07/30 05:13:54;;;;;;;0.10;0.10;;;;;;;;;;4823170;29;20058;-92
2021/07/30 05:16:23;;;;;;;0.10;0.10;;;;;;;;;;4808638;29;20479;-91
2021/07/30 05:18:49;;;;;;;0.10;0.10;;;;;;;;;;4823062;29;20136;-91
2021/07/30 05:21:17;;;;;;;0.10;0.10;;;;;;;;;;4838049;29;20119;-91
2021/07/30 05:23:44;;;;;;;0.10;0.10;;;;;;;;;;4822966;29;20046;-90
2021/07/30 05:26:09;;;;;;;0.10;0.10;;;;;;;;;;4837835;29;20571;-90
2021/07/30 05:28:38;;;;;;;0.10;0.10;;;;;;;;;;4822825;29;20126;-90
2021/07/30 05:31:07;;;;;;;0.10;0.10;;;;;;;;;;4808025;29;20403;-89
2021/07/30 05:33:33;;;;;;;1.55;0.20;;;;;;;;;;4837711;29;20099;-90
2021/07/30 05:35:59;;;;;;;0.20;0.20;;;;;;;;;;4837869;29;20483;-90
2021/07/30 05:38:25;;;;;;;0.15;0.15;;;;;;;;;;4822720;29;20069;-90
2021/07/30 05:40:51;;;;;;;0.10;0.10;;;;;;;;;;4838330;29;20039;-90
2021/07/30 05:43:19;;;;;;;0.10;0.10;;;;;;;;;;4837913;29;20491;-90
2021/07/30 05:45:45;;;;;;;0.10;0.10;;;;;;;;;;4837806;29;20137;-90
2021/07/30 05:48:11;;;;;;;0.13;0.13;;;;;;;;;;4837557;29;20053;-90
2021/07/30 05:50:37;;;;;;;0.10;0.10;;;;;;;;;;4822755;29;20075;-92
2021/07/30 05:53:03;;;;;;;0.10;0.10;;;;;;;;;;4822909;29;20050;-90
2021/07/30 05:55:29;;;;;;;0.10;0.10;;;;;;;;;;4822478;29;20049;-90
2021/07/30 05:57:58;;;;;;;0.20;0.20;;;;;;;;;;4822164;29;20046;-90
2021/07/30 06:00:24;;;;;;;0.10;0.10;;;;;;;;;;4837901;29;20079;-91
2021/07/30 06:02:50;;;;;;;0.10;0.10;;;;;;;;;;4828202;29;20144;-92
2021/07/30 06:05:16;;;;;;;0.40;0.40;;;;;;;;;;4827995;29;20043;-90
2021/07/30 06:07:42;;;;;;;0.10;0.10;;;;;;;;;;4828188;29;20495;-91
2021/07/30 06:10:09;;;;;;;0.10;0.10;;;;;;;;;;4813420;29;20050;-92
2021/07/30 06:12:35;;;;;;;0.10;0.10;;;;;;;;;;4828470;29;20046;-92
2021/07/30 06:15:01;;;;;;;0.20;0.20;;;;;;;;;;4828419;29;20061;-92
2021/07/30 06:17:27;;;;;;;0.10;0.10;;;;;;;;;;4813224;29;20061;-91
2021/07/30 06:19:53;;;;;;;0.10;0.10;;;;;;;;;;4828307;29;20042;-91
2021/07/30 06:22:21;;;;;;;0.30;0.30;;;;;;;;;;4828297;29;20049;-92
2021/07/30 06:24:47;;;;;;;0.20;0.20;;;;;;;;;;4812620;29;20042;-92
2021/07/30 06:27:15;;;;;;;0.10;0.10;;;;;;;;;;4843542;29;20197;-91
2021/07/30 06:29:41;;;;;;;0.10;0.10;;;;;;;;;;4828203;29;20137;-90
2021/07/30 06:32:08;;;;;;;0.10;0.10;;;;;;;;;;4828338;29;20095;-91
2021/07/30 06:34:34;;;;;;;0.10;0.10;;;;;;;;;;4828256;29;20448;-91
2021/07/30 06:37:00;;;;;;;0.40;0.40;;;;;;;;;;4829041;29;20069;-90
2021/07/30 06:39:26;;;;;;;0.10;0.10;;;;;;;;;;4827929;29;20047;-91
2021/07/30 06:41:52;;;;;;;0.10;0.10;;;;;;;;;;4828150;29;20555;-93
2021/07/30 06:44:18;;;;;;;0.10;0.10;;;;;;;;;;4828272;29;20081;-93
2021/07/30 06:46:44;;;;;;;0.10;0.10;;;;;;;;;;4828278;29;20581;-92
2021/07/30 06:49:10;;;;;;;0.10;0.10;;;;;;;;;;4828763;29;20460;-93
2021/07/30 06:51:37;;;;;;;0.10;0.10;;;;;;;;;;4843409;29;20042;-92
2021/07/30 06:54:03;;;;;;;0.10;0.10;;;;;;;;;;4828332;29;20419;-89
2021/07/30 06:56:29;;;;;;;0.30;0.30;;;;;;;;;;4827769;29;20049;-93
2021/07/30 06:58:55;;;;;;;0.10;0.10;;;;;;;;;;4827886;29;20046;-91
2021/07/30 07:01:21;;;;;;;0.10;0.10;;;;;;;;;;4827425;29;20061;-89
2021/07/30 07:03:47;;;;;;;0.20;0.20;;;;;;;;;;4827830;29;20049;-92
2021/07/30 07:06:17;;;;;;;0.10;0.10;;;;;;;;;;4827585;29;20137;-92
2021/07/30 07:08:43;;;;;;;0.10;0.10;;;;;;;;;;4827437;29;20082;-93
2021/07/30 07:11:20;;;;;;;0.10;0.10;;;;;;;;;;4832018;29;20038;-94
2021/07/30 07:13:46;;;;;;;0.20;0.20;;;;;;;;;;4821337;29;20053;-93
2021/07/30 07:16:12;;;;;;;0.20;0.20;;;;;;;;;;4804834;29;20062;-92
2021/07/30 07:18:39;;;;;;;0.30;0.30;;;;;;;;;;4818336;29;20535;-91
2021/07/30 07:21:05;;;;;;;0.10;0.10;;;;;;;;;;4823511;29;20109;-92
2021/07/30 07:23:34;;;;;;;0.10;0.10;;;;;;;;;;4824695;29;20077;-90
2021/07/30 07:26:01;;;;;;;0.17;0.17;;;;;;;;;;4824571;29;20050;-91
2021/07/30 07:28:27;;;;;;;0.20;0.20;;;;;;;;;;4839522;29;20125;-89
2021/07/30 07:30:54;;;;;;;0.20;0.20;;;;;;;;;;4824424;29;20073;-90
2021/07/30 07:33:20;;;;;;;0.40;0.20;;;;;;;;;;4811348;29;20450;-95
2021/07/30 07:35:46;;;;;;;0.20;0.20;;;;;;;;;;4810510;29;20133;-95
2021/07/30 07:38:12;;;;;;;0.10;0.10;;;;;;;;;;4809049;29;20052;-92
2021/07/30 07:40:38;;;;;;;1.85;0.35;;;;;;;;;;4824078;29;20069;-91
2021/07/30 07:43:04;;;;;;;0.20;0.20;;;;;;;;;;4823897;29;20435;-89
2021/07/30 07:45:30;;;;;;;0.20;0.20;;;;;;;;;;4839063;29;20145;-91
2021/07/30 07:47:56;;;;;;;0.20;0.20;;;;;;;;;;4824265;29;20046;-93
2021/07/30 07:50:22;;;;;;;0.20;0.20;;;;;;;;;;4809468;29;20073;-93
2021/07/30 07:52:48;;;;;;;0.20;0.20;;;;;;;;;;4825029;29;20053;-91
2021/07/30 07:55:15;;;;;;;0.45;0.45;;;;;;;;;;4839483;29;20053;-93
2021/07/30 07:57:41;;;;;;;0.38;0.22;;;;;;;;;;4809180;29;20525;-92
2021/07/30 08:00:08;;;;;;;0.20;0.20;;;;;;;;;;4824191;29;20042;-93
2021/07/30 08:02:34;;;;;;;0.52;0.52;;;;;;;;;;4840055;29;20046;-93
2021/07/30 08:05:00;;;;;;;0.20;0.20;;;;;;;;;;4824559;29;20050;-94
2021/07/30 08:07:26;;;;;;;0.20;0.20;;;;;;;;;;4824648;29;20058;-93
2021/07/30 08:09:52;;;;;;;0.10;0.10;;;;;;;;;;4824320;29;20046;-92
2021/07/30 08:12:18;;;;;;;0.20;0.20;;;;;;;;;;4809001;29;20051;-90
2021/07/30 08:14:44;;;;;;;0.30;0.30;;;;;;;;;;4823297;29;20046;-86
2021/07/30 08:17:10;;;;;;;0.10;0.10;;;;;;;;;;4823337;29;20511;-87
2021/07/30 08:19:37;;;;;;;0.20;0.20;;;;;;;;;;4823256;29;20038;-89
2021/07/30 08:22:03;;;;;;;0.20;0.20;;;;;;;;;;4838637;29;20046;-88
2021/07/30 08:24:33;;;;;;;0.10;0.10;;;;;;;;;;4823072;29;20046;-93
2021/07/30 08:26:59;;;;;;;0.10;0.10;;;;;;;;;;4808984;29;20058;-87
2021/07/30 08:29:25;;;;;;;0.20;0.20;;;;;;;;;;4823463;29;20045;-87
2021/07/30 08:31:51;;;;;;;0.20;0.20;;;;;;;;;;4822862;29;20050;-89
2021/07/30 08:34:17;;;;;;;0.10;0.10;;;;;;;;;;4823542;29;20042;-88
2021/07/30 08:36:43;;;;;;;0.10;0.10;;;;;;;;;;4838197;29;20502;-88
2021/07/30 08:39:09;;;;;;;0.10;0.10;;;;;;;;;;4808234;29;20166;-88
2021/07/30 08:41:36;;;;;;;0.20;0.20;;;;;;;;;;4831026;29;20042;-88
2021/07/30 08:44:02;;;;;;;0.20;0.20;;;;;;;;;;4839255;29;20042;-87
2021/07/30 08:46:30;;;;;;;0.20;0.20;;;;;;;;;;4841032;29;20038;-88
2021/07/30 08:48:56;;;;;;;0.20;0.20;;;;;;;;;;4841240;29;20105;-87
2021/07/30 08:51:23;;;;;;;0.20;0.20;;;;;;;;;;4841602;29;20045;-88
2021/07/30 08:53:49;;;;;;;0.20;0.20;;;;;;;;;;4826287;29;20476;-90
2021/07/30 08:56:16;;;;;;;0.30;0.30;;;;;;;;;;4826429;29;20042;-90
2021/07/30 08:58:42;;;;;;;0.30;0.30;;;;;;;;;;4826662;29;20078;-92
2021/07/30 09:01:09;;;;;;;0.50;0.50;;;;;;;;;;4826659;29;20050;-89
2021/07/30 09:03:39;;;;;;;0.10;0.10;;;;;;;;;;4825939;29;20041;-89
2021/07/30 09:06:12;;;;;;;0.20;0.20;;;;;;;;;;4826102;29;20042;-89
2021/07/30 09:08:38;;;;;;;0.20;0.20;;;;;;;;;;4826185;29;20057;-89
2021/07/30 09:11:04;;;;;;;0.20;0.20;;;;;;;;;;4825973;29;20046;-89
2021/07/30 09:13:30;;;;;;;0.20;0.20;;;;;;;;;;4825912;29;20044;-89
2021/07/30 09:15:59;;;;;;;0.10;0.10;;;;;;;;;;4826190;29;20120;-89
2021/07/30 09:18:26;;;;;;;0.20;0.20;;;;;;;;;;4825616;29;20049;-89
2021/07/30 09:20:52;;;;;;;0.20;0.20;;;;;;;;;;4825814;29;20045;-89
2021/07/30 09:23:18;;;;;;;0.20;0.20;;;;;;;;;;4825879;29;20478;-89
2021/07/30 09:25:46;;;;;;;0.20;0.20;;;;;;;;;;4826103;29;20053;-89
2021/07/30 09:28:12;;;;;;;0.20;0.20;;;;;;;;;;4837297;29;20052;-88
2021/07/30 09:30:38;;;;;;;0.10;0.10;;;;;;;;;;4795955;29;20046;-91
2021/07/30 09:33:05;;;;;;;0.20;0.20;;;;;;;;;;4810935;29;20053;-91
2021/07/30 09:35:34;;;;;;;0.20;0.20;;;;;;;;;;4809797;29;20038;-91
2021/07/30 09:38:18;;;;;;;0.60;0.25;;;;;;;;;;4810733;29;20058;-91
2021/07/30 09:40:44;;;;;;;0.20;0.20;;;;;;;;;;4811064;29;20054;-90
2021/07/30 09:43:21;;;;;;;0.20;0.20;;;;;;;;;;4826058;29;20068;-90
2021/07/30 09:45:47;;;;;;;0.20;0.20;;;;;;;;;;4810587;29;20081;-90
2021/07/30 09:48:13;;;;;;;0.10;0.10;;;;;;;;;;4810327;29;20541;-88
2021/07/30 09:50:39;;;;;;;0.20;0.20;;;;;;;;;;4825748;29;20057;-90
2021/07/30 09:53:06;;;;;;;0.20;0.20;;;;;;;;;;4810318;29;20038;-93
2021/07/30 09:55:32;;;;;;;0.20;0.20;;;;;;;;;;4810700;29;20038;-94
2021/07/30 09:57:58;;;;;;;0.20;0.20;;;;;;;;;;4810265;29;20042;-89
2021/07/30 10:00:24;;;;;;;0.20;0.20;;;;;;;;;;4825574;29;20057;-87
2021/07/30 10:02:52;;;;;;;0.10;0.10;;;;;;;;;;4825614;29;20117;-86
2021/07/30 10:05:21;;;;;;;0.20;0.20;;;;;;;;;;4826025;29;20073;-91
2021/07/30 10:08:02;;;;;;;0.20;0.20;;;;;;;;;;4823600;29;20420;-89
2021/07/30 10:10:29;;;;;;;0.20;0.20;;;;;;;;;;4821010;29;20058;-89
2021/07/30 10:12:58;;;;;;;0.10;0.10;;;;;;;;;;4820846;29;20050;-90
2021/07/30 10:15:24;;;;;;;0.20;0.20;;;;;;;;;;4805709;29;20182;-89
2021/07/30 10:17:51;;;;;;;0.60;0.30;;;;;;;;;;4806187;29;20138;-92
2021/07/30 10:20:20;;;;;;;0.20;0.20;;;;;;;;;;4806538;29;20050;-90
2021/07/30 10:22:54;;;;;;;0.20;0.20;;;;;;;;;;4784920;29;20050;-89
2021/07/30 10:25:28;;;;;;;0.20;0.20;;;;;;;;;;4807626;29;20057;-90
2021/07/30 10:27:58;;;;;;;0.30;0.30;;;;;;;;;;4805985;29;20066;-89
2021/07/30 10:30:25;;;;;;;0.20;0.20;;;;;;;;;;4820791;29;20121;-88
2021/07/30 10:32:51;;;;;;;0.20;0.20;;;;;;;;;;4819872;29;20099;-89
2021/07/30 10:35:18;;;;;;;0.20;0.20;;;;;;;;;;4806456;29;20046;-86
2021/07/30 10:37:47;;;;;;;0.10;0.10;;;;;;;;;;4823426;29;20055;-88
2021/07/30 10:40:14;;;;;;;0.20;0.20;;;;;;;;;;4839640;29;20077;-89
2021/07/30 10:42:59;;;;;;;0.10;0.10;;;;;;;;;;4825147;29;20076;-88
2021/07/30 10:45:25;;;;;;;0.20;0.20;;;;;;;;;;4824492;29;20550;-88
2021/07/30 10:48:10;;;;;;;0.20;0.20;;;;;;;;;;4810897;29;20155;-88
2021/07/30 10:50:43;;;;;;;0.30;0.30;;;;;;;;;;4844386;29;20049;-88
2021/07/30 10:53:27;;;;;;;0.20;0.20;;;;;;;;;;4828173;29;20050;-88
2021/07/30 10:55:53;;;;;;;0.10;0.10;;;;;;;;;;4828032;29;20041;-87
2021/07/30 10:58:19;;;;;;;0.20;0.20;;;;;;;;;;4827769;29;20050;-87
2021/07/30 11:00:55;;;;;;;0.20;0.20;;;;;;;;;;4812672;29;20046;-88
2021/07/30 11:03:21;;;;;;;0.20;0.20;;;;;;;;;;4813309;29;20041;-86
2021/07/30 11:06:06;;;;;;;0.20;0.20;;;;;;;;;;4827906;29;20048;-86
2021/07/30 11:08:32;;;;;;;0.10;0.10;;;;;;;;;;4827560;29;20046;-87
2021/07/30 11:11:07;;;;;;;0.10;0.10;;;;;;;;;;4827669;29;20046;-86
2021/07/30 11:13:33;;;;;;;0.10;0.10;;;;;;;;;;4812688;29;20042;-86
2021/07/30 11:16:08;;;;;;;0.20;0.20;;;;;;;;;;4812685;29;20052;-86
2021/07/30 11:18:39;;;;;;;0.20;0.20;;;;;;;;;;4843779;29;20050;-86
2021/07/30 11:21:05;;;;;;;0.30;0.30;;;;;;;;;;4827712;29;20132;-86
2021/07/30 11:23:31;;;;;;;0.20;0.20;;;;;;;;;;4811364;29;20038;-87
2021/07/30 11:26:04;;;;;;;0.30;0.30;;;;;;;;;;4823052;29;20057;-86
2021/07/30 11:28:32;;;;;;;0.20;0.20;;;;;;;;;;4794650;29;20456;-86
2021/07/30 11:30:58;;;;;;;0.10;0.10;;;;;;;;;;4809215;29;20089;-86
2021/07/30 11:33:24;;;;;;;0.20;0.20;;;;;;;;;;4809359;29;20535;-87
2021/07/30 11:35:50;;;;;;;0.20;0.20;;;;;;;;;;4809304;29;20039;-91
2021/07/30 11:38:16;;;;;;;0.20;0.20;;;;;;;;;;4793842;29;20042;-86
2021/07/30 11:40:42;;;;;;;0.20;0.20;;;;;;;;;;4809104;29;20499;-86
2021/07/30 11:43:09;;;;;;;0.20;0.20;;;;;;;;;;4794079;29;20087;-86
2021/07/30 11:45:35;;;;;;;0.20;0.20;;;;;;;;;;4794053;29;20066;-87
2021/07/30 11:48:01;;;;;;;0.32;0.20;;;;;;;;;;4794092;29;20050;-87
2021/07/30 11:50:28;;;;;;;0.20;0.20;;;;;;;;;;4794259;29;20050;-86
2021/07/30 11:52:57;;;;;;;0.20;0.20;;;;;;;;;;4793993;29;20055;-87
2021/07/30 11:55:23;;;;;;;0.20;0.20;;;;;;;;;;4793922;29;20073;-90
2021/07/30 11:57:50;;;;;;;0.10;0.10;;;;;;;;;;4793732;29;20057;-86
2021/07/30 12:00:22;;;;;;;0.10;0.10;;;;;;;;;;4792936;29;20071;-88
2021/07/30 12:02:48;;;;;;;0.20;0.20;;;;;;;;;;4793743;29;20125;-88
2021/07/30 12:05:14;;;;;;;0.20;0.20;;;;;;;;;;4793729;29;20079;-87
2021/07/30 12:07:40;;;;;;;0.20;0.20;;;;;;;;;;4793389;29;20058;-88
2021/07/30 12:10:07;;;;;;;0.20;0.20;;;;;;;;;;4808461;29;20046;-88
2021/07/30 12:12:34;;;;;;;0.40;0.35;;;;;;;;;;4793444;29;20385;-89
2021/07/30 12:15:00;;;;;;;0.20;0.20;;;;;;;;;;4808467;29;20077;-88
2021/07/30 12:17:31;;;;;;;0.20;0.20;;;;;;;;;;4808348;29;20393;-88
2021/07/30 12:19:58;;;;;;;0.20;0.20;;;;;;;;;;4808211;29;20091;-87
2021/07/30 12:22:34;;;;;;;0.20;0.20;;;;;;;;;;4808237;29;20042;-89
2021/07/30 12:25:00;;;;;;;0.10;0.10;;;;;;;;;;4792845;29;20158;-88
2021/07/30 12:27:26;;;;;;;0.20;0.20;;;;;;;;;;4793161;29;20507;-87
2021/07/30 12:29:53;;;;;;;0.20;0.20;;;;;;;;;;4808303;29;20053;-88
2021/07/30 12:32:20;;;;;;;0.20;0.20;;;;;;;;;;4807962;29;20042;-88
2021/07/30 12:35:01;;;;;;;0.20;0.20;;;;;;;;;;4807922;29;20411;-88
2021/07/30 12:37:28;;;;;;;0.20;0.20;;;;;;;;;;4824158;29;20050;-88
2021/07/30 12:39:55;;;;;;;0.10;0.10;;;;;;;;;;4778272;29;20162;-87
2021/07/30 12:42:21;;;;;;;0.10;0.10;;;;;;;;;;4792922;29;20038;-88
2021/07/30 12:45:06;;;;;;;0.10;0.10;;;;;;;;;;4807624;29;20050;-88
2021/07/30 12:47:34;;;;;;;0.20;0.20;;;;;;;;;;4807569;29;20062;-88
2021/07/30 12:50:00;;;;;;;0.20;0.20;;;;;;;;;;4807925;29;20046;-88
2021/07/30 12:52:26;;;;;;;0.98;0.30;;;;;;;;;;4824031;29;20091;-88
2021/07/30 12:55:02;;;;;;;0.20;0.20;;;;;;;;;;4807519;29;20046;-88
2021/07/30 12:57:28;;;;;;;0.20;0.20;;;;;;;;;;4808464;29;20048;-94
2021/07/30 13:00:07;;;;;;;0.30;0.30;;;;;;;;;;4794415;29;20130;-90
2021/07/30 13:02:41;;;;;;;0.20;0.20;;;;;;;;;;4779584;29;20042;-93
2021/07/30 13:05:11;;;;;;;0.50;0.38;;;;;;;;;;4793678;29;20050;-89
2021/07/30 13:07:37;;;;;;;0.20;0.20;;;;;;;;;;4778037;29;20050;-89
2021/07/30 13:10:04;;;;;;;0.10;0.10;;;;;;;;;;4792292;29;20091;-89
2021/07/30 13:12:31;;;;;;;0.20;0.20;;;;;;;;;;4807530;29;20056;-88
2021/07/30 13:14:57;;;;;;;0.82;0.82;;;;;;;;;;4792631;29;20467;-89
2021/07/30 13:17:27;;;;;;;0.20;0.20;;;;;;;;;;4807155;29;20034;-88
2021/07/30 13:19:53;;;;;;;0.20;0.20;;;;;;;;;;4792715;29;20046;-88
2021/07/30 13:22:19;;;;;;;0.30;0.20;;;;;;;;;;4807201;29;20402;-89
2021/07/30 13:24:45;;;;;;;0.10;0.10;;;;;;;;;;4792127;29;20618;-89
2021/07/30 13:27:11;;;;;;;0.65;0.30;;;;;;;;;;4778121;29;20057;-92
2021/07/30 13:29:37;;;;;;;0.32;0.32;;;;;;;;;;4778087;29;20149;-88
2021/07/30 13:32:05;;;;;;;0.20;0.20;;;;;;;;;;4824423;29;20099;-88
2021/07/30 13:34:31;;;;;;;0.20;0.20;;;;;;;;;;4792379;29;20034;-88
2021/07/30 13:36:57;;;;;;;0.20;0.20;;;;;;;;;;4792176;29;20050;-88
2021/07/30 13:39:23;;;;;;;0.20;0.20;;;;;;;;;;4807322;29;20038;-88
2021/07/30 13:41:49;;;;;;;0.10;0.10;;;;;;;;;;4792308;29;20478;-88
2021/07/30 13:44:15;;;;;;;0.10;0.10;;;;;;;;;;4791902;29;20066;-88
2021/07/30 13:46:41;;;;;;;0.10;0.10;;;;;;;;;;4792245;29;20042;-88
2021/07/30 13:49:07;;;;;;;0.20;0.20;;;;;;;;;;4823510;29;20070;-88
2021/07/30 13:51:33;;;;;;;0.35;0.35;;;;;;;;;;4807061;29;20407;-88
2021/07/30 13:53:59;;;;;;;0.20;0.20;;;;;;;;;;4792267;29;20083;-88
2021/07/30 13:56:25;;;;;;;0.20;0.20;;;;;;;;;;4792035;29;20042;-88
2021/07/30 13:58:51;;;;;;;0.20;0.20;;;;;;;;;;4791965;29;20046;-89
2021/07/30 14:01:19;;;;;;;0.10;0.10;;;;;;;;;;4792350;29;20061;-89
2021/07/30 14:03:47;;;;;;;0.17;0.17;;;;;;;;;;4807011;29;20500;-88
2021/07/30 14:06:13;;;;;;;0.10;0.10;;;;;;;;;;4792029;29;20140;-88
2021/07/30 14:08:39;;;;;;;0.10;0.10;;;;;;;;;;4806935;29;20102;-88
2021/07/30 14:11:05;;;;;;;0.10;0.10;;;;;;;;;;4806997;29;20034;-88
2021/07/30 14:13:31;;;;;;;0.10;0.10;;;;;;;;;;4807106;29;20068;-88
2021/07/30 14:15:57;;;;;;;0.10;0.10;;;;;;;;;;4806885;29;20064;-88
2021/07/30 14:18:23;;;;;;;0.20;0.20;;;;;;;;;;4806807;29;20167;-88
2021/07/30 14:20:49;;;;;;;0.13;0.13;;;;;;;;;;4791782;29;20199;-88
2021/07/30 14:23:15;;;;;;;0.20;0.20;;;;;;;;;;4794469;29;20050;-88
2021/07/30 14:25:41;;;;;;;0.20;0.20;;;;;;;;;;4810498;29;20050;-88
2021/07/30 14:28:07;;;;;;;0.20;0.20;;;;;;;;;;4810526;29;20098;-88
2021/07/30 14:30:34;;;;;;;0.10;0.10;;;;;;;;;;4810604;29;20070;-88
2021/07/30 14:33:01;;;;;;;0.20;0.20;;;;;;;;;;4795755;29;20058;-89
2021/07/30 14:35:27;;;;;;;0.10;0.10;;;;;;;;;;4810404;29;20042;-88
2021/07/30 14:37:53;;;;;;;0.10;0.10;;;;;;;;;;4810054;29;20045;-88
2021/07/30 14:40:19;;;;;;;0.10;0.10;;;;;;;;;;4810438;29;20134;-89
2021/07/30 14:42:45;;;;;;;0.17;0.17;;;;;;;;;;4795253;29;20038;-88
2021/07/30 14:45:11;;;;;;;0.20;0.20;;;;;;;;;;4810100;29;20051;-88